createdAt,value
2023-05-22T00:01:46.574Z,40.40
2023-05-22T00:04:23.998Z,43.70
2023-05-22T00:06:58.001Z,44.40
2023-05-22T00:09:27.993Z,40.00
2023-05-22T00:12:07.415Z,33.20
2023-05-22T00:14:45.261Z,25.40
2023-05-22T00:17:23.969Z,24.40
2023-05-22T00:20:11.764Z,25.60
2023-05-22T00:22:50.202Z,20.60
2023-05-22T00:25:28.916Z,14.50
2023-05-22T00:28:07.536Z,11.00
2023-05-22T00:30:38.491Z,11.00
2023-05-22T00:33:17.219Z,10.60
2023-05-22T00:35:55.349Z,10.30
2023-05-22T00:38:40.099Z,10.80
2023-05-22T00:41:12.517Z,9.00
2023-05-22T00:43:45.823Z,8.30
2023-05-22T00:46:21.889Z,9.00
2023-05-22T00:48:59.210Z,7.90
2023-05-22T00:51:36.672Z,7.90
2023-05-22T00:54:14.986Z,7.30
2023-05-22T00:56:46.854Z,6.50
2023-05-22T00:59:18.012Z,7.30
2023-05-22T01:01:56.358Z,6.60
2023-05-22T01:04:35.549Z,6.20
2023-05-22T01:07:13.423Z,6.70
2023-05-22T01:09:54.829Z,6.70
2023-05-22T01:12:49.242Z,6.40
2023-05-22T01:15:45.388Z,6.50
2023-05-22T01:18:42.379Z,6.00
2023-05-22T01:22:01.547Z,6.00
2023-05-22T01:25:30.510Z,6.10
2023-05-22T01:28:59.171Z,6.20
2023-05-22T01:31:45.511Z,7.00
2023-05-22T01:34:21.961Z,7.60
2023-05-22T01:36:59.767Z,6.40
2023-05-22T01:39:38.768Z,5.60
2023-05-22T01:42:17.704Z,5.50
2023-05-22T01:44:59.383Z,6.10
2023-05-22T01:47:38.021Z,5.50
2023-05-22T01:50:17.366Z,6.20
2023-05-22T01:53:40.013Z,6.20
2023-05-22T01:56:34.380Z,6.60
2023-05-22T01:59:34.531Z,5.40
2023-05-22T02:02:12.797Z,6.50
2023-05-22T02:05:00.598Z,6.10
2023-05-22T02:07:40.861Z,6.70
2023-05-22T02:10:20.387Z,6.60
2023-05-22T02:12:58.762Z,6.90
2023-05-22T02:15:37.406Z,6.40
2023-05-22T02:18:17.901Z,6.60
2023-05-22T02:20:56.310Z,6.20
2023-05-22T02:23:31.838Z,6.50
2023-05-22T02:26:10.056Z,7.10
2023-05-22T02:28:47.504Z,6.80
2023-05-22T02:31:21.956Z,6.90
2023-05-22T02:33:59.905Z,6.70
2023-05-22T02:36:38.035Z,7.30
2023-05-22T02:39:15.644Z,6.70
2023-05-22T02:41:53.407Z,7.80
2023-05-22T02:44:23.510Z,7.50
2023-05-22T02:47:01.358Z,7.70
2023-05-22T02:49:40.006Z,6.70
2023-05-22T02:52:19.492Z,7.30
2023-05-22T02:54:56.686Z,6.00
2023-05-22T02:57:34.207Z,7.10
2023-05-22T03:00:13.469Z,6.90
2023-05-22T03:02:52.178Z,6.60
2023-05-22T03:05:29.963Z,7.10
2023-05-22T03:08:09.227Z,6.90
2023-05-22T03:10:46.958Z,6.70
2023-05-22T03:13:17.322Z,7.40
2023-05-22T03:15:55.788Z,7.00
2023-05-22T03:18:28.311Z,7.30
2023-05-22T03:21:03.388Z,7.30
2023-05-22T03:23:34.421Z,7.60
2023-05-22T03:26:13.465Z,7.90
2023-05-22T03:28:51.018Z,7.80
2023-05-22T03:31:34.932Z,8.90
2023-05-22T03:34:13.149Z,7.70
2023-05-22T03:36:51.630Z,7.00
2023-05-22T03:39:30.039Z,7.10
2023-05-22T03:42:09.284Z,7.60
2023-05-22T03:44:47.471Z,4.90
2023-05-22T03:47:25.709Z,8.20
2023-05-22T03:50:03.467Z,8.50
2023-05-22T03:52:41.821Z,7.60
2023-05-22T03:55:19.255Z,6.80
2023-05-22T03:57:58.138Z,7.30
2023-05-22T04:00:28.199Z,7.10
2023-05-22T04:02:59.107Z,5.10
2023-05-22T04:05:37.526Z,7.90
2023-05-22T04:08:15.489Z,7.60
2023-05-22T04:10:54.684Z,3.20
2023-05-22T04:13:33.541Z,6.00
2023-05-22T04:16:04.656Z,7.60
2023-05-22T04:18:43.853Z,8.30
2023-05-22T04:21:24.016Z,8.60
2023-05-22T04:24:07.559Z,8.10
2023-05-22T04:26:46.147Z,8.00
2023-05-22T04:29:25.184Z,7.60
2023-05-22T04:32:03.422Z,6.60
2023-05-22T04:34:42.555Z,6.40
2023-05-22T04:37:21.000Z,6.80
2023-05-22T04:40:07.371Z,6.90
2023-05-22T04:42:46.479Z,7.40
2023-05-22T04:45:25.785Z,6.70
2023-05-22T04:48:04.295Z,6.50
2023-05-22T04:50:42.626Z,5.90
2023-05-22T04:53:21.490Z,7.20
2023-05-22T04:56:04.907Z,6.80
2023-05-22T04:58:42.939Z,5.60
2023-05-22T05:01:23.269Z,6.30
2023-05-22T05:06:32.855Z,5.90
2023-05-22T05:09:07.419Z,5.60
2023-05-22T05:11:45.758Z,6.10
2023-05-22T05:14:24.275Z,5.20
2023-05-22T05:17:02.908Z,6.70
2023-05-22T05:19:42.121Z,6.40
2023-05-22T05:22:18.068Z,4.70
2023-05-22T05:24:56.805Z,5.10
2023-05-22T05:27:35.066Z,4.40
2023-05-22T05:30:14.593Z,5.20
2023-05-22T05:32:52.830Z,5.40
2023-05-22T05:35:30.892Z,4.50
2023-05-22T05:38:09.197Z,4.90
2023-05-22T05:40:47.771Z,6.20
2023-05-22T05:43:25.834Z,5.70
2023-05-22T05:46:04.249Z,5.90
2023-05-22T05:48:42.330Z,5.60
2023-05-22T05:51:21.631Z,6.90
2023-05-22T05:53:56.962Z,5.70
2023-05-22T05:56:28.852Z,5.00
2023-05-22T05:59:07.196Z,5.60
2023-05-22T06:01:48.307Z,4.30
2023-05-22T06:04:24.767Z,3.60
2023-05-22T06:07:04.262Z,4.30
2023-05-22T06:09:42.788Z,4.60
2023-05-22T06:12:21.673Z,4.90
2023-05-22T06:15:00.007Z,6.00
2023-05-22T06:17:37.949Z,5.60
2023-05-22T06:20:16.042Z,5.80
2023-05-22T06:22:53.774Z,5.30
2023-05-22T06:25:32.446Z,3.60
2023-05-22T06:28:07.057Z,5.90
2023-05-22T06:30:46.249Z,5.60
2023-05-22T06:33:24.878Z,3.90
2023-05-22T06:36:04.164Z,3.80
2023-05-22T06:38:41.867Z,4.30
2023-05-22T06:41:12.381Z,3.10
2023-05-22T06:43:49.381Z,4.70
2023-05-22T06:46:26.781Z,3.40
2023-05-22T06:49:06.542Z,4.70
2023-05-22T06:51:44.141Z,4.00
2023-05-22T06:54:21.964Z,2.90
2023-05-22T06:56:59.779Z,3.80
2023-05-22T06:59:37.448Z,3.60
2023-05-22T07:02:16.037Z,3.10
2023-05-22T07:04:54.402Z,3.90
2023-05-22T07:07:32.235Z,4.10
2023-05-22T07:10:06.857Z,4.10
2023-05-22T07:12:38.133Z,4.10
2023-05-22T07:15:12.580Z,3.60
2023-05-22T07:17:50.232Z,4.00
2023-05-22T07:20:28.746Z,4.10
2023-05-22T07:23:04.953Z,3.80
2023-05-22T07:25:43.677Z,2.80
2023-05-22T07:28:21.894Z,3.50
2023-05-22T07:30:59.103Z,3.00
2023-05-22T07:33:37.392Z,2.90
2023-05-22T07:36:16.054Z,2.70
2023-05-22T07:38:54.915Z,2.50
2023-05-22T07:41:33.601Z,2.60
2023-05-22T07:44:11.679Z,3.00
2023-05-22T07:46:49.331Z,2.40
2023-05-22T07:49:28.339Z,2.40
2023-05-22T07:52:01.407Z,2.60
2023-05-22T07:54:32.347Z,2.80
2023-05-22T07:57:12.898Z,3.00
2023-05-22T07:59:51.155Z,2.60
2023-05-22T08:02:28.589Z,2.60
2023-05-22T08:05:07.733Z,2.20
2023-05-22T08:07:46.390Z,2.60
2023-05-22T08:10:19.227Z,3.80
2023-05-22T08:12:58.936Z,2.10
2023-05-22T08:15:38.947Z,2.40
2023-05-22T08:18:17.807Z,2.70
2023-05-22T08:20:58.625Z,2.80
2023-05-22T08:23:38.927Z,3.30
2023-05-22T08:26:16.750Z,2.60
2023-05-22T08:28:54.207Z,2.60
2023-05-22T08:31:34.794Z,3.10
2023-05-22T08:34:12.537Z,2.60
2023-05-22T08:36:51.037Z,2.80
2023-05-22T08:39:29.430Z,2.50
2023-05-22T08:42:08.731Z,2.10
2023-05-22T08:44:47.869Z,2.40
2023-05-22T08:47:24.409Z,2.50
2023-05-22T08:50:00.803Z,2.20
2023-05-22T08:52:53.501Z,3.60
2023-05-22T08:55:31.979Z,2.30
2023-05-22T08:58:12.130Z,2.60
2023-05-22T09:00:50.612Z,2.50
2023-05-22T09:03:38.238Z,2.00
2023-05-22T09:06:18.066Z,2.50
2023-05-22T09:09:02.270Z,2.30
2023-05-22T09:11:40.633Z,2.10
2023-05-22T09:14:18.969Z,2.30
2023-05-22T09:16:57.672Z,2.80
2023-05-22T09:19:36.780Z,2.30
2023-05-22T09:22:14.954Z,3.10
2023-05-22T09:24:53.209Z,2.40
2023-05-22T09:27:32.810Z,1.80
2023-05-22T09:30:12.591Z,2.30
2023-05-22T09:32:54.106Z,2.60
2023-05-22T09:35:34.994Z,2.40
2023-05-22T09:38:16.167Z,2.50
2023-05-22T09:40:58.872Z,2.00
2023-05-22T09:43:38.259Z,2.80
2023-05-22T09:46:20.624Z,2.50
2023-05-22T09:49:04.104Z,2.50
2023-05-22T09:51:48.602Z,2.50
2023-05-22T09:54:31.400Z,2.80
2023-05-22T09:57:12.652Z,2.50
2023-05-22T09:59:59.775Z,2.40
2023-05-22T10:02:35.703Z,2.40
2023-05-22T10:05:29.644Z,2.40
2023-05-22T10:08:19.169Z,2.70
2023-05-22T10:10:58.274Z,2.00
2023-05-22T10:13:37.032Z,2.70
2023-05-22T10:16:17.211Z,2.20
2023-05-22T10:18:55.751Z,2.90
2023-05-22T10:21:34.504Z,2.90
2023-05-22T10:24:11.261Z,2.80
2023-05-22T10:26:51.079Z,2.80
2023-05-22T10:30:00.108Z,2.70
2023-05-22T10:33:04.871Z,2.60
2023-05-22T10:36:00.166Z,2.50
2023-05-22T10:39:00.736Z,2.90
2023-05-22T10:41:39.584Z,3.20
2023-05-22T10:44:19.580Z,3.30
2023-05-22T10:46:51.048Z,2.80
2023-05-22T10:49:27.264Z,2.80
2023-05-22T10:51:57.770Z,2.90
2023-05-22T10:54:49.577Z,2.90
2023-05-22T10:57:28.755Z,2.50
2023-05-22T11:00:20.514Z,2.30
2023-05-22T11:03:17.943Z,2.60
2023-05-22T11:05:57.948Z,2.50
2023-05-22T11:08:39.888Z,2.70
2023-05-22T11:11:17.918Z,2.30
2023-05-22T11:14:07.031Z,2.70
2023-05-22T11:16:43.138Z,2.60
2023-05-22T11:19:26.586Z,1.90
2023-05-22T11:22:02.538Z,2.30
2023-05-22T11:24:38.560Z,2.80
2023-05-22T11:27:16.992Z,2.40
2023-05-22T11:29:56.026Z,3.00
2023-05-22T11:32:34.204Z,2.70
2023-05-22T11:35:12.157Z,2.30
2023-05-22T11:37:51.333Z,3.00
2023-05-22T11:40:31.864Z,2.70
2023-05-22T11:43:10.713Z,2.20
2023-05-22T11:45:48.753Z,2.80
2023-05-22T11:48:28.019Z,2.80
2023-05-22T11:51:06.731Z,2.40
2023-05-22T11:53:45.127Z,2.30
2023-05-22T11:56:24.258Z,3.00
2023-05-22T11:58:57.486Z,2.50
2023-05-22T12:01:36.750Z,2.80
2023-05-22T12:04:14.819Z,2.40
2023-05-22T12:06:54.874Z,2.10
2023-05-22T12:09:36.458Z,2.70
2023-05-22T12:12:17.576Z,2.40
2023-05-22T12:14:55.389Z,2.50
2023-05-22T12:17:33.638Z,2.50
2023-05-22T12:20:16.408Z,3.20
2023-05-22T12:22:49.861Z,2.40
2023-05-22T12:25:21.156Z,2.40
2023-05-22T12:27:59.906Z,3.20
2023-05-22T12:30:42.284Z,4.00
2023-05-22T12:33:21.211Z,2.50
2023-05-22T12:36:00.060Z,2.10
2023-05-22T12:38:39.885Z,1.80
2023-05-22T12:41:18.552Z,2.40
2023-05-22T12:43:57.234Z,2.90
2023-05-22T12:46:39.326Z,2.50
2023-05-22T12:49:18.216Z,2.40
2023-05-22T12:51:56.694Z,2.70
2023-05-22T12:54:35.813Z,2.90
2023-05-22T12:57:17.417Z,2.30
2023-05-22T12:59:55.740Z,2.60
2023-05-22T13:02:34.617Z,3.00
2023-05-22T13:05:14.222Z,1.70
2023-05-22T13:07:53.679Z,2.30
2023-05-22T13:10:32.302Z,2.70
2023-05-22T13:13:04.062Z,2.20
2023-05-22T13:15:42.149Z,2.70
2023-05-22T13:18:20.824Z,4.00
2023-05-22T13:20:52.605Z,2.40
2023-05-22T13:23:23.655Z,2.50
2023-05-22T13:26:02.730Z,2.10
2023-05-22T13:28:41.206Z,2.60
2023-05-22T13:31:19.792Z,2.60
2023-05-22T13:33:51.687Z,2.20
2023-05-22T13:36:30.603Z,3.70
2023-05-22T13:39:09.648Z,1.90
2023-05-22T13:41:43.292Z,2.50
2023-05-22T13:44:21.770Z,2.40
2023-05-22T13:46:56.056Z,2.40
2023-05-22T13:49:33.042Z,2.30
2023-05-22T13:52:03.780Z,2.50
2023-05-22T13:54:41.931Z,2.80
2023-05-22T13:57:21.001Z,2.30
2023-05-22T13:59:59.347Z,2.50
2023-05-22T14:02:37.950Z,2.50
2023-05-22T14:05:09.681Z,2.70
2023-05-22T14:07:47.818Z,2.40
2023-05-22T14:10:26.303Z,2.90
2023-05-22T14:13:04.395Z,2.60
2023-05-22T14:15:42.950Z,2.60
2023-05-22T14:18:21.579Z,2.80
2023-05-22T14:20:59.547Z,2.80
2023-05-22T14:23:37.999Z,1.90
2023-05-22T14:26:16.780Z,2.40
2023-05-22T14:28:47.846Z,2.70
2023-05-22T14:31:24.321Z,3.00
2023-05-22T14:34:02.948Z,2.50
2023-05-22T14:36:40.683Z,2.70
2023-05-22T14:39:19.173Z,2.60
2023-05-22T14:41:58.698Z,2.80
2023-05-22T14:44:36.981Z,2.10
2023-05-22T14:47:16.019Z,3.20
2023-05-22T14:49:57.684Z,2.40
2023-05-22T14:52:41.721Z,2.00
2023-05-22T14:55:21.494Z,2.10
2023-05-22T14:58:00.339Z,2.20
2023-05-22T15:03:17.199Z,2.50
2023-05-22T15:05:56.673Z,2.70
2023-05-22T15:08:37.138Z,2.40
2023-05-22T15:11:15.682Z,3.10
2023-05-22T15:13:56.842Z,2.50
2023-05-22T15:16:35.084Z,3.50
2023-05-22T15:19:05.551Z,2.30
2023-05-22T15:21:37.606Z,2.40
2023-05-22T15:24:10.274Z,2.50
2023-05-22T15:26:45.760Z,3.00
2023-05-22T15:29:23.238Z,2.80
2023-05-22T15:32:00.986Z,2.40
2023-05-22T15:34:32.239Z,3.10
2023-05-22T15:37:14.035Z,2.40
2023-05-22T15:39:51.900Z,2.80
2023-05-22T15:42:30.144Z,2.70
2023-05-22T15:45:08.510Z,2.00
2023-05-22T15:47:47.400Z,2.60
2023-05-22T15:50:25.744Z,2.60
2023-05-22T15:53:04.541Z,2.90
2023-05-22T15:55:43.134Z,2.60
2023-05-22T15:58:22.562Z,2.20
2023-05-22T16:01:02.253Z,2.50
2023-05-22T16:03:41.543Z,2.30
2023-05-22T16:06:13.109Z,2.70
2023-05-22T16:08:46.881Z,2.70
2023-05-22T16:11:25.573Z,2.80
2023-05-22T16:14:03.968Z,3.00
2023-05-22T16:16:42.305Z,2.80
2023-05-22T16:19:20.485Z,2.50
2023-05-22T16:21:58.252Z,2.80
2023-05-22T16:24:28.795Z,2.40
2023-05-22T16:27:07.838Z,2.40
2023-05-22T16:29:45.246Z,2.70
2023-05-22T16:32:23.366Z,2.60
2023-05-22T16:35:02.148Z,2.70
2023-05-22T16:37:41.470Z,3.10
2023-05-22T16:40:20.926Z,2.80
2023-05-22T16:42:59.842Z,2.60
2023-05-22T16:45:32.852Z,2.60
2023-05-22T16:48:09.366Z,2.30
2023-05-22T16:50:48.429Z,2.30
2023-05-22T16:53:27.315Z,2.50
2023-05-22T16:56:05.119Z,2.50
2023-05-22T16:58:43.071Z,2.70
2023-05-22T17:01:22.525Z,2.70
2023-05-22T17:03:57.720Z,2.70
2023-05-22T17:09:11.248Z,2.60
2023-05-22T17:11:45.280Z,2.50
2023-05-22T17:16:59.453Z,2.80
2023-05-22T17:19:31.017Z,2.90
2023-05-22T17:22:09.178Z,3.20
2023-05-22T17:24:46.986Z,2.30
2023-05-22T17:27:35.483Z,2.70
2023-05-22T17:30:12.286Z,2.80
2023-05-22T17:32:50.480Z,2.50
2023-05-22T17:35:29.290Z,3.70
2023-05-22T17:38:08.893Z,2.60
2023-05-22T17:40:47.464Z,2.50
2023-05-22T17:43:21.155Z,2.90
2023-05-22T17:45:58.814Z,2.60
2023-05-22T17:48:36.983Z,2.40
2023-05-22T17:51:15.746Z,3.00
2023-05-22T17:53:56.498Z,2.90
2023-05-22T17:59:11.296Z,2.80
2023-05-22T18:01:49.653Z,3.20
2023-05-22T18:04:27.048Z,3.30
2023-05-22T18:07:04.321Z,3.00
2023-05-22T18:09:41.417Z,3.30
2023-05-22T18:12:30.152Z,2.80
2023-05-22T18:15:13.688Z,2.40
2023-05-22T18:17:50.975Z,2.60
2023-05-22T18:20:24.749Z,3.20
2023-05-22T18:23:03.226Z,2.80
2023-05-22T18:25:33.400Z,3.40
2023-05-22T18:28:11.036Z,2.90
2023-05-22T18:30:49.889Z,3.40
2023-05-22T18:33:27.900Z,3.10
2023-05-22T18:36:08.521Z,3.00
2023-05-22T18:38:40.050Z,3.10
2023-05-22T18:41:14.798Z,3.10
2023-05-22T18:43:52.986Z,3.50
2023-05-22T18:46:31.596Z,3.30
2023-05-22T18:49:11.236Z,3.20
2023-05-22T18:51:48.798Z,3.70
2023-05-22T18:54:27.278Z,3.10
2023-05-22T18:57:04.994Z,3.70
2023-05-22T18:59:38.046Z,3.60
2023-05-22T19:02:09.285Z,3.50
2023-05-22T19:04:49.372Z,4.10
2023-05-22T19:07:23.549Z,4.50
2023-05-22T19:10:03.858Z,5.10
2023-05-22T19:12:43.681Z,4.60
2023-05-22T19:15:23.538Z,4.30
2023-05-22T19:18:04.075Z,4.00
2023-05-22T19:20:42.303Z,4.70
2023-05-22T19:23:20.433Z,5.40
2023-05-22T19:25:58.820Z,4.60
2023-05-22T19:28:38.210Z,4.30
2023-05-22T19:31:17.021Z,4.50
2023-05-22T19:33:49.750Z,4.70
2023-05-22T19:36:27.781Z,4.30
2023-05-22T19:39:06.737Z,4.30
2023-05-22T19:41:45.505Z,3.90
2023-05-22T19:44:17.744Z,4.40
2023-05-22T19:46:53.860Z,4.40
2023-05-22T19:49:34.774Z,4.20
2023-05-22T19:52:13.947Z,4.30
2023-05-22T19:54:53.346Z,4.60
2023-05-22T19:57:35.434Z,5.10
2023-05-22T20:02:52.245Z,3.70
2023-05-22T20:05:30.350Z,5.00
2023-05-22T20:08:13.445Z,3.90
2023-05-22T20:10:52.582Z,5.80
2023-05-22T20:13:30.815Z,5.10
2023-05-22T20:16:13.261Z,4.80
2023-05-22T20:18:51.359Z,4.70
2023-05-22T20:21:31.213Z,4.90
2023-05-22T20:24:17.764Z,5.10
2023-05-22T20:26:54.934Z,5.30
2023-05-22T20:29:33.744Z,4.30
2023-05-22T20:32:13.149Z,6.80
2023-05-22T20:34:52.732Z,5.90
2023-05-22T20:40:09.634Z,5.10
2023-05-22T20:42:47.896Z,5.40
2023-05-22T20:45:27.375Z,5.30
2023-05-22T20:48:06.648Z,5.10
2023-05-22T20:50:47.965Z,5.60
2023-05-22T20:53:26.847Z,5.80
2023-05-22T20:56:06.315Z,9.20
2023-05-22T20:58:44.928Z,7.70
2023-05-22T21:01:23.767Z,6.30
2023-05-22T21:04:02.444Z,6.80
2023-05-22T21:06:40.993Z,10.10
2023-05-22T21:09:19.900Z,9.10
2023-05-22T21:11:50.838Z,9.60
2023-05-22T21:14:29.331Z,8.80
2023-05-22T21:17:01.505Z,6.90
2023-05-22T21:19:36.500Z,7.50
2023-05-22T21:22:15.396Z,7.00
2023-05-22T21:24:53.923Z,6.00
2023-05-22T21:27:32.192Z,6.50
2023-05-22T21:30:11.082Z,8.20
2023-05-22T21:32:49.110Z,9.80
2023-05-22T21:35:30.117Z,5.80
2023-05-22T21:38:11.471Z,7.60
2023-05-22T21:40:50.183Z,6.50
2023-05-22T21:43:31.717Z,7.00
2023-05-22T21:46:11.556Z,6.70
2023-05-22T21:48:46.902Z,6.80
2023-05-22T21:51:25.521Z,7.30
2023-05-22T21:53:55.890Z,8.80
2023-05-22T21:56:34.333Z,9.40
2023-05-22T21:59:14.316Z,6.80
2023-05-22T22:01:53.246Z,6.60
2023-05-22T22:04:31.926Z,7.80
2023-05-22T22:07:03.059Z,7.50
2023-05-22T22:09:38.367Z,8.90
2023-05-22T22:12:17.224Z,7.80
2023-05-22T22:14:55.861Z,7.40
2023-05-22T22:17:35.069Z,6.50
2023-05-22T22:20:14.766Z,8.10
2023-05-22T22:22:53.808Z,6.50
2023-05-22T22:25:32.438Z,6.00
2023-05-22T22:28:09.370Z,7.10
2023-05-22T22:30:51.365Z,6.40
2023-05-22T22:33:28.281Z,6.90
2023-05-22T22:36:07.318Z,6.60
2023-05-22T22:38:46.382Z,6.20
2023-05-22T22:41:16.480Z,7.10
2023-05-22T22:43:54.783Z,7.50
2023-05-22T22:46:32.844Z,6.60
2023-05-22T22:49:13.495Z,7.40
2023-05-22T22:51:51.666Z,7.80
2023-05-22T22:54:30.693Z,6.80
2023-05-22T22:57:11.179Z,7.00
2023-05-22T22:59:49.742Z,7.50
2023-05-22T23:02:27.644Z,7.60
2023-05-22T23:05:08.412Z,7.20
2023-05-22T23:07:46.828Z,7.40
2023-05-22T23:10:20.815Z,8.60
2023-05-22T23:12:50.775Z,8.70
2023-05-22T23:15:29.770Z,7.50
2023-05-22T23:21:22.929Z,7.20
2023-05-22T23:23:53.610Z,7.10
2023-05-22T23:26:35.855Z,9.10
2023-05-22T23:29:13.867Z,7.70
2023-05-22T23:31:53.283Z,7.10
2023-05-22T23:34:31.627Z,7.70
2023-05-22T23:37:11.910Z,9.50
2023-05-22T23:39:51.160Z,7.80
2023-05-22T23:42:30.228Z,8.00
2023-05-22T23:45:10.202Z,7.60
2023-05-22T23:47:48.243Z,8.00
2023-05-22T23:50:27.019Z,7.70
2023-05-22T23:53:05.309Z,7.40
2023-05-22T23:55:44.591Z,8.30
2023-05-22T23:58:18.529Z,8.20
